createdAt,value
2017-03-07T00:00:10.703Z,23.1
2017-03-07T00:01:10.740Z,23.01
2017-03-07T00:02:11.214Z,23.04
2017-03-07T00:03:10.758Z,23.07
2017-03-07T00:04:10.710Z,23.05
2017-03-07T00:05:10.716Z,23.01
2017-03-07T00:06:10.327Z,23.01
2017-03-07T00:07:10.774Z,23.05
2017-03-07T00:08:10.641Z,23.02
2017-03-07T00:09:10.010Z,23.09
2017-03-07T00:10:10.462Z,23.01
2017-03-07T00:11:10.866Z,23.09
2017-03-07T00:12:10.847Z,23
2017-03-07T00:13:11.167Z,23
2017-03-07T00:14:10.836Z,22.98
2017-03-07T00:15:10.454Z,22.98
2017-03-07T00:16:10.835Z,22.98
2017-03-07T00:17:10.848Z,22.98
2017-03-07T00:18:10.896Z,22.98
2017-03-07T00:19:10.865Z,23
2017-03-07T00:20:10.814Z,22.98
2017-03-07T00:21:10.879Z,22.95
2017-03-07T00:22:10.874Z,23.02
2017-03-07T00:23:10.898Z,22.98
2017-03-07T00:24:11.435Z,22.98
2017-03-07T00:25:10.893Z,22.98
2017-03-07T00:26:10.602Z,22.98
2017-03-07T00:27:10.905Z,22.97
2017-03-07T00:28:10.120Z,23.01
2017-03-07T00:29:10.486Z,23
2017-03-07T00:30:10.986Z,23.02
2017-03-07T00:31:11.006Z,23.02
2017-03-07T00:32:10.886Z,23
2017-03-07T00:33:10.155Z,23.02
2017-03-07T00:34:10.899Z,23
2017-03-07T00:35:11.449Z,23.02
2017-03-07T00:36:10.515Z,23.05
2017-03-07T00:37:10.977Z,23.01
2017-03-07T00:38:10.130Z,23.07
2017-03-07T00:39:11.831Z,23
2017-03-07T00:40:10.989Z,23.04
2017-03-07T00:41:11.195Z,23.07
2017-03-07T00:42:10.952Z,23.01
2017-03-07T00:43:11.011Z,23.02
2017-03-07T00:44:11.017Z,23.04
2017-03-07T00:45:11.037Z,23.1
2017-03-07T00:46:11.732Z,23.04
2017-03-07T00:47:11.017Z,23.04
2017-03-07T00:48:10.605Z,22.98
2017-03-07T00:49:10.728Z,23.01
2017-03-07T00:50:11.049Z,23.02
2017-03-07T00:51:11.015Z,23.01
2017-03-07T00:52:10.675Z,23.01
2017-03-07T00:53:11.070Z,22.95
2017-03-07T00:54:11.132Z,23.09
2017-03-07T00:55:11.095Z,23
2017-03-07T00:56:11.099Z,23.04
2017-03-07T00:57:13.804Z,23
2017-03-07T00:58:11.160Z,22.97
2017-03-07T00:59:11.122Z,23.01
2017-03-07T01:00:11.071Z,23.07
2017-03-07T01:01:11.082Z,23.07
2017-03-07T01:02:10.742Z,22.97
2017-03-07T01:03:11.094Z,23.07
2017-03-07T01:04:11.145Z,23.04
2017-03-07T01:05:11.166Z,23.07
2017-03-07T01:06:10.847Z,22.98
2017-03-07T01:07:11.180Z,23.04
2017-03-07T01:08:11.820Z,23.04
2017-03-07T01:09:11.141Z,23.01
2017-03-07T01:10:11.134Z,23.04
2017-03-07T01:11:11.138Z,23.01
2017-03-07T01:12:10.844Z,22.94
2017-03-07T01:13:11.144Z,23.07
2017-03-07T01:14:10.423Z,23.05
2017-03-07T01:15:11.216Z,23.01
2017-03-07T01:16:11.293Z,23.02
2017-03-07T01:17:11.220Z,23.07
2017-03-07T01:18:11.189Z,23.05
2017-03-07T01:19:11.784Z,23
2017-03-07T01:20:11.309Z,22.95
2017-03-07T01:21:11.250Z,22.95
2017-03-07T01:22:10.881Z,23.01
2017-03-07T01:23:11.225Z,22.98
2017-03-07T01:24:10.870Z,22.86
2017-03-07T01:25:10.828Z,22.91
2017-03-07T01:26:11.227Z,22.91
2017-03-07T01:27:11.305Z,22.97
2017-03-07T01:28:10.901Z,22.95
2017-03-07T01:29:11.309Z,23.05
2017-03-07T01:30:11.856Z,23
2017-03-07T01:31:11.299Z,22.95
2017-03-07T01:32:13.625Z,22.94
2017-03-07T01:33:11.331Z,22.98
2017-03-07T01:34:11.282Z,22.98
2017-03-07T01:35:11.698Z,22.92
2017-03-07T01:36:11.301Z,22.98
2017-03-07T01:37:10.986Z,22.97
2017-03-07T01:38:11.420Z,23
2017-03-07T01:39:11.413Z,23.02
2017-03-07T01:40:11.022Z,23.04
2017-03-07T01:41:11.978Z,23
2017-03-07T01:42:11.330Z,23.05
2017-03-07T01:43:10.853Z,23
2017-03-07T01:44:11.442Z,22.98
2017-03-07T01:45:12.545Z,23.05
2017-03-07T01:46:11.356Z,22.95
2017-03-07T01:47:11.362Z,23.02
2017-03-07T01:48:11.379Z,22.98
2017-03-07T01:49:11.026Z,23
2017-03-07T01:50:11.430Z,23
2017-03-07T01:51:11.435Z,23.02
2017-03-07T01:52:12.236Z,23.01
2017-03-07T01:53:11.398Z,23.02
2017-03-07T01:54:11.469Z,22.97
2017-03-07T01:55:11.566Z,23
2017-03-07T01:56:11.182Z,22.97
2017-03-07T01:57:11.431Z,23
2017-03-07T01:58:11.432Z,23
2017-03-07T01:59:11.441Z,22.98
2017-03-07T02:00:11.492Z,22.91
2017-03-07T02:01:11.549Z,22.91
2017-03-07T02:02:11.759Z,23.04
2017-03-07T02:03:12.278Z,23.04
2017-03-07T02:04:11.125Z,22.94
2017-03-07T02:05:11.527Z,22.94
2017-03-07T02:06:11.482Z,22.98
2017-03-07T02:07:11.547Z,23.01
2017-03-07T02:08:11.188Z,22.97
2017-03-07T02:09:11.511Z,23.04
2017-03-07T02:10:11.520Z,23.05
2017-03-07T02:11:10.776Z,22.95
2017-03-07T02:12:11.543Z,22.94
2017-03-07T02:13:11.628Z,22.95
2017-03-07T02:14:12.352Z,22.92
2017-03-07T02:15:11.591Z,22.94
2017-03-07T02:16:11.500Z,22.94
2017-03-07T02:17:11.600Z,22.97
2017-03-07T02:18:11.222Z,22.98
2017-03-07T02:19:11.712Z,22.95
2017-03-07T02:20:11.288Z,22.98
2017-03-07T02:21:11.637Z,22.98
2017-03-07T02:22:11.594Z,22.97
2017-03-07T02:23:11.644Z,23.01
2017-03-07T02:24:11.611Z,23.04
2017-03-07T02:25:12.356Z,23.02
2017-03-07T02:26:11.614Z,22.95
2017-03-07T02:27:11.620Z,22.83
2017-03-07T02:28:11.677Z,22.98
2017-03-07T02:29:11.642Z,22.94
2017-03-07T02:30:11.290Z,22.98
2017-03-07T02:31:11.295Z,22.94
2017-03-07T02:32:11.357Z,23.04
2017-03-07T02:33:11.405Z,22.98
2017-03-07T02:34:11.271Z,23
2017-03-07T02:35:11.721Z,23.02
2017-03-07T02:36:12.257Z,22.98
2017-03-07T02:37:11.780Z,22.86
2017-03-07T02:38:11.348Z,22.97
2017-03-07T02:39:11.692Z,22.97
2017-03-07T02:40:11.301Z,22.97
2017-03-07T02:41:11.720Z,22.94
2017-03-07T02:42:11.325Z,23.05
2017-03-07T02:43:11.730Z,23.04
2017-03-07T02:44:11.355Z,23
2017-03-07T02:45:12.116Z,23
2017-03-07T02:46:11.354Z,23.04
2017-03-07T02:47:12.346Z,23.07
2017-03-07T02:48:11.801Z,22.98
2017-03-07T02:49:11.857Z,23
2017-03-07T02:50:11.379Z,22.95
2017-03-07T02:51:11.816Z,22.95
2017-03-07T02:52:11.875Z,23.01
2017-03-07T02:53:11.797Z,22.91
2017-03-07T02:54:12.162Z,22.94
2017-03-07T02:55:11.792Z,22.94
2017-03-07T02:56:11.800Z,23
2017-03-07T02:57:11.826Z,22.98
2017-03-07T02:58:12.364Z,22.98
2017-03-07T02:59:11.828Z,22.95
2017-03-07T03:00:11.996Z,22.98
2017-03-07T03:01:11.880Z,23
2017-03-07T03:02:11.889Z,22.98
2017-03-07T03:03:11.951Z,22.86
2017-03-07T03:04:11.904Z,22.97
2017-03-07T03:05:11.916Z,22.88
2017-03-07T03:06:11.863Z,22.86
2017-03-07T03:07:11.867Z,22.85
2017-03-07T03:08:11.542Z,22.86
2017-03-07T03:09:12.637Z,22.98
2017-03-07T03:10:11.947Z,22.9
2017-03-07T03:11:12.059Z,22.88
2017-03-07T03:12:11.506Z,22.88
2017-03-07T03:13:11.959Z,22.91
2017-03-07T03:14:11.929Z,22.95
2017-03-07T03:15:11.920Z,22.98
2017-03-07T03:16:11.984Z,23.02
2017-03-07T03:17:11.984Z,22.85
2017-03-07T03:18:11.665Z,22.94
2017-03-07T03:19:11.998Z,22.91
2017-03-07T03:20:12.611Z,22.97
2017-03-07T03:21:12.009Z,22.92
2017-03-07T03:22:11.967Z,22.88
2017-03-07T03:23:11.578Z,22.95
2017-03-07T03:24:12.043Z,22.9
2017-03-07T03:25:11.597Z,22.98
2017-03-07T03:26:12.049Z,22.86
2017-03-07T03:27:11.719Z,22.94
2017-03-07T03:28:12.013Z,22.85
2017-03-07T03:29:12.022Z,22.94
2017-03-07T03:30:11.680Z,22.88
2017-03-07T03:31:12.923Z,22.91
2017-03-07T03:32:11.632Z,22.91
2017-03-07T03:33:12.045Z,22.82
2017-03-07T03:34:12.042Z,22.92
2017-03-07T03:35:11.766Z,22.94
2017-03-07T03:36:11.730Z,22.91
2017-03-07T03:37:11.766Z,22.92
2017-03-07T03:38:11.275Z,22.88
2017-03-07T03:39:12.084Z,22.97
2017-03-07T03:40:12.184Z,22.9
2017-03-07T03:41:12.105Z,22.9
2017-03-07T03:42:12.901Z,22.83
2017-03-07T03:43:12.095Z,22.94
2017-03-07T03:44:12.155Z,22.92
2017-03-07T03:45:12.171Z,22.94
2017-03-07T03:46:12.173Z,22.92
2017-03-07T03:47:11.777Z,22.88
2017-03-07T03:48:12.184Z,22.98
2017-03-07T03:49:12.141Z,22.86
2017-03-07T03:50:12.692Z,22.85
2017-03-07T03:51:11.812Z,22.91
2017-03-07T03:52:12.202Z,22.9
2017-03-07T03:53:12.772Z,22.9
2017-03-07T03:54:11.827Z,22.95
2017-03-07T03:55:12.277Z,22.92
2017-03-07T03:56:12.291Z,22.8
2017-03-07T03:57:12.189Z,22.94
2017-03-07T03:58:11.795Z,22.9
2017-03-07T03:59:12.247Z,22.86
2017-03-07T04:00:13.361Z,22.91
2017-03-07T04:01:11.930Z,22.9
2017-03-07T04:02:11.870Z,22.92
2017-03-07T04:03:12.278Z,22.9
2017-03-07T04:04:12.987Z,22.94
2017-03-07T04:05:12.252Z,22.82
2017-03-07T04:06:12.370Z,22.94
2017-03-07T04:07:12.397Z,22.9
2017-03-07T04:08:11.906Z,22.9
2017-03-07T04:09:11.917Z,22.88
2017-03-07T04:10:12.271Z,22.9
2017-03-07T04:11:12.324Z,22.88
2017-03-07T04:12:12.281Z,22.9
2017-03-07T04:13:11.956Z,22.86
2017-03-07T04:14:12.312Z,22.8
2017-03-07T04:15:13.249Z,22.9
2017-03-07T04:16:11.974Z,22.92
2017-03-07T04:17:12.374Z,22.86
2017-03-07T04:18:12.380Z,22.97
2017-03-07T04:19:12.421Z,22.82
2017-03-07T04:20:12.348Z,22.91
2017-03-07T04:21:11.990Z,22.95
2017-03-07T04:22:12.395Z,22.9
2017-03-07T04:23:12.378Z,22.86
2017-03-07T04:24:12.015Z,22.91
2017-03-07T04:25:12.419Z,22.88
2017-03-07T04:26:13.201Z,22.94
2017-03-07T04:27:12.378Z,22.92
2017-03-07T04:28:12.531Z,22.85
2017-03-07T04:29:12.445Z,22.9
2017-03-07T04:30:12.393Z,22.91
2017-03-07T04:31:12.410Z,22.9
2017-03-07T04:32:12.462Z,22.86
2017-03-07T04:33:12.461Z,22.82
2017-03-07T04:34:12.422Z,22.86
2017-03-07T04:35:12.483Z,22.88
2017-03-07T04:36:12.360Z,22.88
2017-03-07T04:37:13.845Z,22.85
2017-03-07T04:38:12.072Z,22.9
2017-03-07T04:39:13.159Z,22.85
2017-03-07T04:40:12.518Z,22.88
2017-03-07T04:41:12.520Z,22.9
2017-03-07T04:42:12.472Z,22.85
2017-03-07T04:43:12.485Z,22.83
2017-03-07T04:44:12.546Z,22.8
2017-03-07T04:45:12.580Z,22.82
2017-03-07T04:46:12.595Z,22.83
2017-03-07T04:47:12.566Z,22.82
2017-03-07T04:48:14.085Z,22.79
2017-03-07T04:49:12.516Z,22.79
2017-03-07T04:50:13.401Z,22.8
2017-03-07T04:51:12.626Z,22.83
2017-03-07T04:52:12.543Z,22.83
2017-03-07T04:53:12.600Z,22.75
2017-03-07T04:54:12.602Z,22.79
2017-03-07T04:55:12.606Z,22.83
2017-03-07T04:56:12.662Z,22.79
2017-03-07T04:57:12.616Z,22.8
2017-03-07T04:58:12.582Z,22.83
2017-03-07T04:59:13.963Z,22.86
2017-03-07T05:00:12.596Z,22.9
2017-03-07T05:01:13.302Z,22.92
2017-03-07T05:02:12.596Z,22.82
2017-03-07T05:03:12.654Z,22.85
2017-03-07T05:04:12.617Z,22.86
2017-03-07T05:05:12.615Z,22.86
2017-03-07T05:06:12.678Z,22.88
2017-03-07T05:07:13.138Z,22.9
2017-03-07T05:08:12.704Z,22.8
2017-03-07T05:09:12.646Z,22.88
2017-03-07T05:10:14.328Z,22.83
2017-03-07T05:11:12.702Z,22.79
2017-03-07T05:12:13.642Z,22.8
2017-03-07T05:13:12.726Z,22.82
2017-03-07T05:14:12.321Z,22.83
2017-03-07T05:15:12.730Z,22.82
2017-03-07T05:16:12.792Z,22.8
2017-03-07T05:17:11.964Z,22.82
2017-03-07T05:18:12.696Z,22.82
2017-03-07T05:19:12.807Z,22.83
2017-03-07T05:20:12.828Z,22.8
2017-03-07T05:21:12.781Z,22.82
2017-03-07T05:22:12.725Z,22.77
2017-03-07T05:23:13.733Z,22.83
2017-03-07T05:24:12.396Z,22.77
2017-03-07T05:25:12.344Z,22.82
2017-03-07T05:26:12.401Z,22.82
2017-03-07T05:27:13.102Z,22.85
2017-03-07T05:28:12.771Z,22.8
2017-03-07T05:29:12.819Z,22.77
2017-03-07T05:30:12.826Z,22.82
2017-03-07T05:31:12.382Z,22.79
2017-03-07T05:32:12.839Z,22.79
2017-03-07T05:33:12.896Z,22.77
2017-03-07T05:34:13.908Z,22.8
2017-03-07T05:35:12.407Z,22.77
2017-03-07T05:36:12.916Z,22.82
2017-03-07T05:37:12.539Z,22.82
2017-03-07T05:38:12.885Z,22.79
2017-03-07T05:39:12.842Z,22.77
2017-03-07T05:40:12.491Z,22.83
2017-03-07T05:41:13.003Z,22.79
2017-03-07T05:42:12.894Z,22.82
2017-03-07T05:43:12.561Z,22.77
2017-03-07T05:44:12.924Z,22.77
2017-03-07T05:45:14.824Z,22.79
2017-03-07T05:46:12.923Z,22.79
2017-03-07T05:47:12.929Z,22.79
2017-03-07T05:48:12.542Z,22.8
2017-03-07T05:49:12.545Z,22.73
2017-03-07T05:50:12.949Z,22.85
2017-03-07T05:51:12.955Z,22.83
2017-03-07T05:52:13.164Z,22.8
2017-03-07T05:53:12.913Z,22.73
2017-03-07T05:54:12.593Z,22.75
2017-03-07T05:55:13.634Z,22.76
2017-03-07T05:56:14.131Z,22.65
2017-03-07T05:57:12.545Z,22.65
2017-03-07T05:58:12.608Z,22.7
2017-03-07T05:59:13.062Z,22.82
2017-03-07T06:00:13.019Z,22.77
2017-03-07T06:01:13.080Z,22.76
2017-03-07T06:02:13.079Z,22.82
2017-03-07T06:03:12.887Z,22.75
2017-03-07T06:04:13.035Z,22.79
2017-03-07T06:05:13.049Z,22.77
2017-03-07T06:06:13.064Z,22.73
2017-03-07T06:07:13.794Z,22.79
2017-03-07T06:08:13.062Z,22.8
2017-03-07T06:09:13.015Z,22.79
2017-03-07T06:10:12.678Z,22.8
2017-03-07T06:11:13.079Z,22.85
2017-03-07T06:12:13.144Z,22.8
2017-03-07T06:13:13.090Z,22.79
2017-03-07T06:14:13.035Z,22.82
2017-03-07T06:15:13.356Z,22.8
2017-03-07T06:16:13.069Z,22.79
2017-03-07T06:17:13.118Z,22.8
2017-03-07T06:18:14.198Z,22.82
2017-03-07T06:19:13.129Z,22.83
2017-03-07T06:20:13.163Z,22.85
2017-03-07T06:21:13.110Z,22.8
2017-03-07T06:22:13.104Z,22.83
2017-03-07T06:23:13.153Z,22.8
2017-03-07T06:24:13.115Z,22.8
2017-03-07T06:25:13.468Z,22.75
2017-03-07T06:26:12.729Z,22.73
2017-03-07T06:27:13.133Z,22.76
2017-03-07T06:28:13.284Z,22.72
2017-03-07T06:29:14.441Z,22.67
2017-03-07T06:30:13.161Z,22.73
2017-03-07T06:31:12.808Z,22.7
2017-03-07T06:32:13.219Z,22.77
2017-03-07T06:33:13.234Z,22.76
2017-03-07T06:34:13.273Z,22.76
2017-03-07T06:35:12.900Z,22.83
2017-03-07T06:36:13.053Z,22.77
2017-03-07T06:37:13.291Z,22.83
2017-03-07T06:38:13.498Z,22.77
2017-03-07T06:39:13.205Z,22.77
2017-03-07T06:40:14.104Z,22.75
2017-03-07T06:41:13.275Z,22.79
2017-03-07T06:42:13.276Z,22.77
2017-03-07T06:43:12.849Z,22.82
2017-03-07T06:44:12.945Z,22.83
2017-03-07T06:45:13.375Z,22.82
2017-03-07T06:46:13.307Z,22.79
2017-03-07T06:47:13.822Z,22.75
2017-03-07T06:48:13.367Z,22.77
2017-03-07T06:49:12.968Z,22.79
2017-03-07T06:50:13.289Z,22.82
2017-03-07T06:51:13.330Z,22.77
2017-03-07T06:52:13.285Z,22.79
2017-03-07T06:53:13.292Z,22.79
2017-03-07T06:54:13.397Z,22.77
2017-03-07T06:55:13.368Z,22.77
2017-03-07T06:56:13.315Z,22.76
2017-03-07T06:57:13.424Z,22.77
2017-03-07T06:58:14.140Z,22.75
2017-03-07T06:59:13.334Z,22.67
2017-03-07T07:00:13.389Z,22.76
2017-03-07T07:01:13.456Z,22.65
2017-03-07T07:02:13.016Z,22.67
2017-03-07T07:03:13.008Z,22.7
2017-03-07T07:04:13.469Z,22.72
2017-03-07T07:05:13.425Z,22.77
2017-03-07T07:06:13.476Z,22.73
2017-03-07T07:07:13.527Z,22.7
2017-03-07T07:08:13.447Z,22.7
2017-03-07T07:09:14.501Z,22.68
2017-03-07T07:10:13.501Z,22.68
2017-03-07T07:11:14.004Z,22.68
2017-03-07T07:12:14.567Z,22.68
2017-03-07T07:13:13.467Z,22.79
2017-03-07T07:14:13.522Z,22.76
2017-03-07T07:15:13.098Z,22.83
2017-03-07T07:16:13.142Z,22.82
2017-03-07T07:17:13.553Z,22.95
2017-03-07T07:18:13.460Z,22.98
2017-03-07T07:19:13.158Z,23.02
2017-03-07T07:20:14.459Z,23.2
2017-03-07T07:21:13.565Z,23.33
2017-03-07T07:22:14.226Z,23.38
2017-03-07T07:23:13.540Z,23.51
2017-03-07T07:24:13.596Z,23.55
2017-03-07T07:25:13.591Z,23.72
2017-03-07T07:26:13.224Z,23.66
2017-03-07T07:27:13.104Z,23.78
2017-03-07T07:28:13.524Z,23.93
2017-03-07T07:29:13.626Z,24
2017-03-07T07:30:13.671Z,24.12
2017-03-07T07:31:14.528Z,24.2
2017-03-07T07:32:13.682Z,24.34
2017-03-07T07:33:14.488Z,24.4
2017-03-07T07:34:13.649Z,24.47
2017-03-07T07:35:13.674Z,24.45
2017-03-07T07:36:13.627Z,24.52
2017-03-07T07:37:13.706Z,24.5
2017-03-07T07:38:13.686Z,24.53
2017-03-07T07:39:13.331Z,24.58
2017-03-07T07:40:13.635Z,24.55
2017-03-07T07:41:13.690Z,24.68
2017-03-07T07:42:13.646Z,24.65
2017-03-07T07:43:13.614Z,24.68
2017-03-07T07:44:14.815Z,24.68
2017-03-07T07:45:13.689Z,24.69
2017-03-07T07:46:14.125Z,24.83
2017-03-07T07:47:13.731Z,24.8
2017-03-07T07:48:13.705Z,24.73
2017-03-07T07:49:13.711Z,24.78
2017-03-07T07:50:13.709Z,24.91
2017-03-07T07:51:13.362Z,24.71
2017-03-07T07:52:13.767Z,24.78
2017-03-07T07:53:13.721Z,24.69
2017-03-07T07:54:13.443Z,24.76
2017-03-07T07:55:14.852Z,24.65
2017-03-07T07:56:13.354Z,24.73
2017-03-07T07:57:14.106Z,24.65
2017-03-07T07:58:14.059Z,24.68
2017-03-07T07:59:13.817Z,24.64
2017-03-07T08:00:13.774Z,24.55
2017-03-07T08:01:13.842Z,24.55
2017-03-07T08:02:13.793Z,24.53
2017-03-07T08:03:13.457Z,24.42
2017-03-07T08:04:13.848Z,24.5
2017-03-07T08:05:13.476Z,24.34
2017-03-07T08:06:15.014Z,24.4
2017-03-07T08:07:13.833Z,24.42
2017-03-07T08:08:14.298Z,24.35
2017-03-07T08:09:14.134Z,24.31
2017-03-07T08:10:13.556Z,24.22
2017-03-07T08:11:13.955Z,24.21
2017-03-07T08:12:13.919Z,24.32
2017-03-07T08:13:13.963Z,24.25
2017-03-07T08:14:13.888Z,24.16
2017-03-07T08:15:13.697Z,24.05
2017-03-07T08:16:13.588Z,24.05
2017-03-07T08:17:14.921Z,24.03
2017-03-07T08:18:13.504Z,24.02
2017-03-07T08:19:14.674Z,24.02
2017-03-07T08:20:14.033Z,24.03
2017-03-07T08:21:13.537Z,24.06
2017-03-07T08:22:13.980Z,23.98
2017-03-07T08:23:13.989Z,23.97
2017-03-07T08:24:13.992Z,23.79
2017-03-07T08:25:14.010Z,23.83
2017-03-07T08:26:14.004Z,23.91
2017-03-07T08:27:13.565Z,23.79
2017-03-07T08:28:13.921Z,23.8
2017-03-07T08:29:13.974Z,23.73
2017-03-07T08:30:13.636Z,23.69
2017-03-07T08:31:14.096Z,23.73
2017-03-07T08:32:13.989Z,23.7
2017-03-07T08:33:14.063Z,23.75
2017-03-07T08:34:14.123Z,23.61
2017-03-07T08:35:14.088Z,23.73
2017-03-07T08:36:14.071Z,23.69
2017-03-07T08:37:14.629Z,23.76
2017-03-07T08:38:14.035Z,23.66
2017-03-07T08:39:14.407Z,23.6
2017-03-07T08:40:13.312Z,23.66
2017-03-07T08:41:14.077Z,23.58
2017-03-07T08:42:14.166Z,23.54
2017-03-07T08:43:14.189Z,23.66
2017-03-07T08:44:14.196Z,23.68
2017-03-07T08:45:14.134Z,23.72
2017-03-07T08:46:13.756Z,23.78
2017-03-07T08:47:13.753Z,23.8
2017-03-07T08:48:14.803Z,23.65
2017-03-07T08:49:14.423Z,23.73
2017-03-07T08:50:14.115Z,23.66
2017-03-07T08:51:14.249Z,23.76
2017-03-07T08:52:13.731Z,23.76
2017-03-07T08:53:14.191Z,23.78
2017-03-07T08:54:13.802Z,23.87
2017-03-07T08:55:14.200Z,23.79
2017-03-07T08:56:13.811Z,23.83
2017-03-07T08:57:14.122Z,23.85
2017-03-07T08:58:14.142Z,23.84
2017-03-07T08:59:15.127Z,23.83
2017-03-07T09:00:14.258Z,23.88
2017-03-07T09:01:14.364Z,23.85
2017-03-07T09:02:14.300Z,23.78
2017-03-07T09:03:13.860Z,23.78
2017-03-07T09:04:14.271Z,23.85
2017-03-07T09:05:13.829Z,23.87
2017-03-07T09:06:14.289Z,23.87
2017-03-07T09:07:14.282Z,23.91
2017-03-07T09:08:14.240Z,23.91
2017-03-07T09:09:14.250Z,23.88
2017-03-07T09:10:15.374Z,23.91
2017-03-07T09:11:14.307Z,23.88
2017-03-07T09:12:14.722Z,23.85
2017-03-07T09:13:14.272Z,23.97
2017-03-07T09:14:14.355Z,23.79
2017-03-07T09:15:14.353Z,23.85
2017-03-07T09:16:13.848Z,23.88
2017-03-07T09:17:14.322Z,23.93
2017-03-07T09:18:13.981Z,23.95
2017-03-07T09:19:13.980Z,23.94
2017-03-07T09:20:14.430Z,23.93
2017-03-07T09:21:15.203Z,23.91
2017-03-07T09:22:14.346Z,23.91
2017-03-07T09:23:15.109Z,23.9
2017-03-07T09:24:14.390Z,23.91
2017-03-07T09:25:14.426Z,23.88
2017-03-07T09:26:14.413Z,23.94
2017-03-07T09:27:14.330Z,23.88
2017-03-07T09:28:14.027Z,23.91
2017-03-07T09:29:14.335Z,23.94
2017-03-07T09:30:13.717Z,24
2017-03-07T09:31:14.096Z,23.94
2017-03-07T09:32:15.380Z,23.94
2017-03-07T09:33:14.064Z,23.93
2017-03-07T09:34:15.392Z,23.88
2017-03-07T09:35:14.520Z,23.88
2017-03-07T09:36:14.162Z,23.87
2017-03-07T09:37:14.533Z,23.85
2017-03-07T09:38:14.543Z,23.88
2017-03-07T09:39:14.500Z,23.85
2017-03-07T09:40:14.510Z,23.87
2017-03-07T09:41:14.511Z,23.9
2017-03-07T09:42:14.095Z,23.85
2017-03-07T09:43:14.538Z,23.87
2017-03-07T09:44:14.491Z,23.8
2017-03-07T09:45:17.061Z,23.84
2017-03-07T09:46:14.547Z,23.78
2017-03-07T09:47:14.504Z,23.78
2017-03-07T09:48:14.124Z,23.84
2017-03-07T09:49:14.586Z,23.83
2017-03-07T09:50:14.592Z,23.83
2017-03-07T09:51:14.249Z,23.76
2017-03-07T09:52:14.592Z,23.84
2017-03-07T09:53:14.148Z,23.91
2017-03-07T09:54:14.551Z,23.88
2017-03-07T09:55:14.673Z,23.87
2017-03-07T09:56:16.639Z,23.87
2017-03-07T09:57:14.675Z,23.84
2017-03-07T09:58:14.632Z,23.76
2017-03-07T09:59:14.495Z,23.7
2017-03-07T10:00:14.594Z,23.69
2017-03-07T10:01:14.650Z,23.66
2017-03-07T10:02:14.619Z,23.68
2017-03-07T10:03:14.235Z,23.7
2017-03-07T10:04:14.277Z,23.75
2017-03-07T10:05:14.286Z,23.65
2017-03-07T10:06:14.745Z,23.68
2017-03-07T10:07:16.120Z,23.73
2017-03-07T10:08:14.257Z,23.63
2017-03-07T10:09:14.260Z,23.76
2017-03-07T10:10:13.874Z,23.76
2017-03-07T10:11:14.329Z,23.69
2017-03-07T10:12:14.692Z,23.58
2017-03-07T10:13:14.790Z,23.63
2017-03-07T10:14:14.649Z,23.55
2017-03-07T10:15:14.698Z,23.65
2017-03-07T10:16:15.008Z,23.63
2017-03-07T10:17:14.849Z,23.68
2017-03-07T10:18:16.344Z,23.58
2017-03-07T10:19:14.774Z,23.55
2017-03-07T10:20:14.348Z,23.54
2017-03-07T10:21:14.745Z,23.53
2017-03-07T10:22:14.848Z,23.48
2017-03-07T10:23:14.805Z,23.53
2017-03-07T10:24:14.365Z,23.58
2017-03-07T10:25:14.778Z,23.46
2017-03-07T10:26:14.893Z,23.51
2017-03-07T10:27:14.799Z,23.53
2017-03-07T10:28:14.755Z,23.43
2017-03-07T10:29:14.849Z,23.4
2017-03-07T10:30:14.904Z,23.51
2017-03-07T10:31:14.786Z,23.46
2017-03-07T10:32:14.887Z,23.54
2017-03-07T10:33:14.382Z,23.5
2017-03-07T10:34:14.456Z,23.55
2017-03-07T10:35:14.901Z,23.58
2017-03-07T10:36:14.525Z,23.61
2017-03-07T10:37:14.806Z,23.57
2017-03-07T10:38:15.065Z,23.69
2017-03-07T10:39:14.927Z,23.63
2017-03-07T10:40:14.986Z,23.68
2017-03-07T10:41:14.487Z,23.66
2017-03-07T10:42:14.554Z,23.58
2017-03-07T10:43:14.995Z,23.61
2017-03-07T10:44:14.971Z,23.66
2017-03-07T10:45:15.012Z,23.66
2017-03-07T10:46:14.965Z,23.68
2017-03-07T10:47:14.651Z,23.69
2017-03-07T10:48:14.897Z,23.79
2017-03-07T10:49:15.254Z,23.66
2017-03-07T10:50:14.919Z,23.69
2017-03-07T10:51:14.899Z,23.63
2017-03-07T10:52:15.021Z,23.72
2017-03-07T10:53:15.022Z,23.61
2017-03-07T10:54:14.679Z,23.65
2017-03-07T10:55:15.030Z,23.75
2017-03-07T10:56:14.589Z,23.69
2017-03-07T10:57:15.013Z,23.75
2017-03-07T10:58:14.725Z,23.78
2017-03-07T10:59:14.761Z,23.75
2017-03-07T11:00:15.617Z,23.75
2017-03-07T11:01:15.024Z,23.87
2017-03-07T11:02:14.603Z,23.78
2017-03-07T11:03:14.739Z,23.7
2017-03-07T11:04:15.098Z,23.65
2017-03-07T11:05:14.767Z,23.63
2017-03-07T11:06:15.059Z,23.69
2017-03-07T11:07:15.070Z,23.72
2017-03-07T11:08:15.035Z,23.75
2017-03-07T11:09:15.094Z,23.72
2017-03-07T11:10:15.193Z,23.61
2017-03-07T11:11:15.903Z,23.78
2017-03-07T11:12:15.047Z,23.69
2017-03-07T11:13:15.255Z,23.63
2017-03-07T11:14:15.220Z,23.7
2017-03-07T11:15:14.774Z,23.69
2017-03-07T11:16:14.784Z,23.8
2017-03-07T11:17:15.143Z,23.73
2017-03-07T11:18:15.205Z,23.65
2017-03-07T11:19:15.153Z,23.83
2017-03-07T11:20:14.715Z,23.75
2017-03-07T11:21:15.181Z,23.73
2017-03-07T11:22:16.375Z,23.63
2017-03-07T11:23:15.182Z,23.57
2017-03-07T11:24:15.639Z,23.61
2017-03-07T11:25:14.847Z,23.57
2017-03-07T11:26:15.146Z,23.53
2017-03-07T11:27:15.251Z,23.48
2017-03-07T11:28:15.267Z,23.58
2017-03-07T11:29:15.171Z,23.58
2017-03-07T11:30:15.280Z,23.48
2017-03-07T11:31:15.237Z,23.6
2017-03-07T11:32:14.865Z,23.6
2017-03-07T11:33:16.833Z,23.63
2017-03-07T11:34:15.328Z,23.68
2017-03-07T11:35:15.670Z,23.61
2017-03-07T11:36:15.333Z,23.73
2017-03-07T11:37:15.373Z,23.76
2017-03-07T11:38:14.898Z,23.68
2017-03-07T11:39:15.239Z,23.73
2017-03-07T11:40:15.255Z,23.73
2017-03-07T11:41:15.427Z,23.8
2017-03-07T11:42:15.029Z,23.76
2017-03-07T11:43:15.423Z,23.85
2017-03-07T11:44:14.929Z,23.84
2017-03-07T11:45:15.359Z,23.9
2017-03-07T11:46:16.547Z,23.78
2017-03-07T11:47:15.293Z,23.76
2017-03-07T11:48:15.472Z,23.91
2017-03-07T11:49:15.384Z,23.93
2017-03-07T11:50:15.415Z,23.9
2017-03-07T11:51:15.928Z,23.87
2017-03-07T11:52:14.986Z,23.88
2017-03-07T11:53:15.394Z,23.95
2017-03-07T11:54:14.615Z,23.91
2017-03-07T11:55:15.514Z,23.76
2017-03-07T11:56:15.420Z,23.87
2017-03-07T11:57:16.321Z,23.88
2017-03-07T11:58:15.074Z,23.88
2017-03-07T11:59:15.434Z,23.85
2017-03-07T12:00:15.459Z,23.8
2017-03-07T12:01:15.440Z,23.87
2017-03-07T12:02:15.059Z,23.87
2017-03-07T12:03:15.456Z,23.91
2017-03-07T12:04:15.485Z,23.97
2017-03-07T12:05:15.023Z,23.9
2017-03-07T12:06:15.424Z,23.83
2017-03-07T12:07:15.483Z,23.85
2017-03-07T12:08:15.489Z,23.93
2017-03-07T12:09:15.500Z,23.84
2017-03-07T12:10:15.502Z,23.9
2017-03-07T12:11:15.523Z,23.79
2017-03-07T12:12:15.605Z,23.91
2017-03-07T12:13:16.742Z,23.88
2017-03-07T12:14:15.486Z,23.93
2017-03-07T12:15:15.537Z,23.95
2017-03-07T12:16:15.545Z,23.95
2017-03-07T12:17:15.954Z,23.94
2017-03-07T12:18:15.768Z,23.78
2017-03-07T12:19:15.527Z,23.8
2017-03-07T12:20:15.524Z,23.98
2017-03-07T12:21:15.581Z,23.84
2017-03-07T12:22:15.197Z,23.78
2017-03-07T12:23:15.643Z,23.76
2017-03-07T12:24:15.554Z,23.8
2017-03-07T12:25:15.163Z,23.83
2017-03-07T12:26:15.617Z,23.87
2017-03-07T12:27:15.678Z,23.78
2017-03-07T12:28:16.126Z,23.94
2017-03-07T12:29:15.240Z,23.98
2017-03-07T12:30:15.643Z,23.95
2017-03-07T12:31:15.206Z,23.97
2017-03-07T12:32:15.336Z,23.98
2017-03-07T12:33:15.672Z,23.94
2017-03-07T12:34:16.970Z,24.06
2017-03-07T12:35:15.737Z,24.02
2017-03-07T12:36:15.631Z,23.98
2017-03-07T12:37:15.692Z,23.94
2017-03-07T12:38:15.599Z,23.94
2017-03-07T12:39:16.266Z,23.97
2017-03-07T12:40:15.717Z,24.02
2017-03-07T12:41:15.781Z,24.06
2017-03-07T12:42:15.703Z,24.05
2017-03-07T12:43:15.799Z,23.98
2017-03-07T12:44:15.789Z,24.08
2017-03-07T12:45:15.805Z,24.06
2017-03-07T12:46:15.457Z,24
2017-03-07T12:47:15.788Z,24.06
2017-03-07T12:48:15.371Z,24.05
2017-03-07T12:49:15.750Z,24.06
2017-03-07T12:50:16.943Z,24
2017-03-07T12:51:15.797Z,24
2017-03-07T12:52:16.151Z,23.94
2017-03-07T12:53:15.749Z,23.97
2017-03-07T12:54:15.914Z,24
2017-03-07T12:55:15.437Z,23.88
2017-03-07T12:56:15.840Z,23.9
2017-03-07T12:57:15.880Z,23.91
2017-03-07T12:58:15.788Z,23.84